Time;durP1;ratioP1;P1;durP2;ratioP2;P2;SDS_P1;SDS_P2;PMS_P1;PMS_P2;Temp;Humidity;BMP_temperature;BMP_pressure;BME280_temperature;BME280_humidity;BME280_pressure;Samples;Min_cycle;Max_cycle;Signal;HPM_P1;HPM_P2
2024/01/20 00:02:41;;;;;;;14.68;7.82;;;;;;;-0.06;54.04;100581.62;7746431;32;39367;-83
2024/01/20 00:07:02;;;;;;;10.95;7.15;;;;;;;0.04;53.89;100584.06;7764111;32;39902;-83
2024/01/20 00:11:19;;;;;;;13.10;7.30;;;;;;;0.03;54.10;100585.06;7763736;32;38721;-84
2024/01/20 00:15:36;;;;;;;21.95;10.50;;;;;;;0.23;53.35;100594.22;7750091;32;37272;-82
2024/01/20 00:19:52;;;;;;;23.05;11.45;;;;;;;0.22;53.37;100605.12;7740963;32;40099;-83
2024/01/20 00:24:11;;;;;;;17.23;7.97;;;;;;;0.51;52.89;100607.81;7736542;32;39123;-82
2024/01/20 00:28:27;;;;;;;18.77;8.32;;;;;;;0.46;52.76;100607.53;7736478;32;38948;-82
2024/01/20 00:32:43;;;;;;;23.02;9.85;;;;;;;0.44;52.71;100609.59;7736500;32;36959;-82
2024/01/20 00:37:03;;;;;;;15.35;8.18;;;;;;;0.43;52.80;100623.19;7749328;32;39983;-82
2024/01/20 00:41:19;;;;;;;14.80;7.15;;;;;;;0.46;52.69;100622.81;7739586;32;40759;-82
2024/01/20 00:45:37;;;;;;;19.73;10.02;;;;;;;0.44;52.79;100627.53;7739874;32;37178;-83
2024/01/20 00:49:54;;;;;;;14.63;8.20;;;;;;;0.42;52.53;100630.41;7739748;32;37172;-83
2024/01/20 00:54:11;;;;;;;19.08;7.70;;;;;;;0.14;53.53;100635.56;7739668;32;40216;-82
2024/01/20 00:58:27;;;;;;;14.32;8.20;;;;;;;-0.28;54.98;100644.97;7760011;32;39789;-82
2024/01/20 01:02:44;;;;;;;14.65;7.70;;;;;;;-0.23;55.19;100661.34;7766195;32;38551;-82
2024/01/20 01:07:00;;;;;;;14.85;8.23;;;;;;;-0.39;55.83;100668.50;7766345;32;37940;-82
2024/01/20 01:11:16;;;;;;;17.08;8.27;;;;;;;-0.29;55.60;100678.97;7766601;32;39271;-82
2024/01/20 01:15:33;;;;;;;12.07;7.95;;;;;;;-0.12;55.19;100682.38;7766346;32;40912;-83
2024/01/20 01:19:49;;;;;;;18.87;9.25;;;;;;;-0.39;56.01;100684.56;7766308;32;37957;-81
2024/01/20 01:24:06;;;;;;;14.87;7.65;;;;;;;-0.35;56.16;100684.22;7741157;32;37912;-82
2024/01/20 01:28:22;;;;;;;13.13;8.68;;;;;;;-0.50;56.40;100693.03;7739621;32;40102;-82
2024/01/20 01:32:38;;;;;;;14.93;7.75;;;;;;;-0.24;55.69;100692.69;7739024;32;40817;-82
2024/01/20 01:36:55;;;;;;;15.75;8.02;;;;;;;-0.11;55.41;100681.34;7739048;32;38022;-82
2024/01/20 01:41:11;;;;;;;12.75;7.95;;;;;;;-0.37;56.06;100683.56;7739129;32;37365;-82
2024/01/20 01:45:27;;;;;;;13.45;7.32;;;;;;;-0.11;55.05;100686.69;7739252;32;39797;-82
2024/01/20 01:49:44;;;;;;;18.35;7.87;;;;;;;-0.30;55.74;100695.25;7738081;32;39725;-82
2024/01/20 01:54:02;;;;;;;11.07;7.35;;;;;;;-0.36;55.76;100709.34;7749472;32;38747;-82
2024/01/20 01:58:18;;;;;;;16.48;8.25;;;;;;;-0.13;54.98;100712.88;7765938;32;36079;-82
2024/01/20 02:02:35;;;;;;;12.65;7.47;;;;;;;-0.16;55.37;100715.91;7766004;32;39353;-83
2024/01/20 02:06:52;;;;;;;13.95;7.85;;;;;;;-0.28;55.59;100718.16;7752618;32;39924;-82
2024/01/20 02:11:09;;;;;;;15.68;7.93;;;;;;;-0.36;55.89;100725.41;7724855;32;38959;-82
2024/01/20 02:15:26;;;;;;;14.05;7.55;;;;;;;-0.28;55.68;100718.16;7738807;32;36926;-82
2024/01/20 02:19:43;;;;;;;11.52;6.90;;;;;;;-0.40;55.99;100731.16;7738809;32;40266;-82
2024/01/20 02:24:00;;;;;;;11.90;7.70;;;;;;;-0.37;55.87;100735.31;7738599;32;39604;-82
2024/01/20 02:28:16;;;;;;;14.98;7.65;;;;;;;-0.69;56.89;100733.62;7725670;32;37916;-83
2024/01/20 02:32:33;;;;;;;12.73;7.30;;;;;;;-0.58;56.40;100727.91;7758841;32;37254;-82
2024/01/20 02:36:51;;;;;;;14.00;7.70;;;;;;;-0.20;55.31;100738.72;7765584;32;39293;-81
2024/01/20 02:41:07;;;;;;;13.70;8.13;;;;;;;-0.39;55.52;100735.47;7765428;32;39947;-82
2024/01/20 02:45:23;;;;;;;13.13;7.10;;;;;;;-0.46;55.94;100741.72;7765339;32;37685;-82
2024/01/20 02:49:40;;;;;;;12.95;8.25;;;;;;;-0.35;55.35;100741.31;7765443;32;37011;-82
2024/01/20 02:53:57;;;;;;;13.40;8.68;;;;;;;-0.35;55.02;100727.91;7764927;32;39376;-83
2024/01/20 02:58:14;;;;;;;17.62;8.65;;;;;;;-0.59;55.76;100726.22;7765090;32;39770;-82
2024/01/20 03:02:30;;;;;;;16.12;7.60;;;;;;;-0.23;54.73;100747.09;7764612;32;37656;-82
2024/01/20 03:06:46;;;;;;;12.52;7.20;;;;;;;-0.27;54.87;100761.88;7765267;32;38039;-81
2024/01/20 03:11:02;;;;;;;13.52;7.35;;;;;;;-0.14;54.64;100764.78;7765233;32;40086;-82
2024/01/20 03:15:19;;;;;;;16.25;7.35;;;;;;;-0.29;55.17;100763.91;7741440;32;39991;-81
2024/01/20 03:19:35;;;;;;;13.23;7.35;;;;;;;-0.35;55.13;100780.69;7738072;32;37928;-80
2024/01/20 03:23:53;;;;;;;13.35;7.20;;;;;;;-0.27;55.31;100783.31;7737921;32;36975;-81
2024/01/20 03:28:10;;;;;;;15.77;7.53;;;;;;;-0.03;54.44;100776.97;7738027;32;38642;-82
2024/01/20 03:32:26;;;;;;;14.73;7.12;;;;;;;0.10;53.88;100779.03;7737746;32;40013;-81
2024/01/20 03:36:42;;;;;;;13.88;8.25;;;;;;;0.07;53.53;100784.75;7737912;32;38645;-81
2024/01/20 03:40:59;;;;;;;17.33;7.95;;;;;;;-0.13;54.04;100774.50;7737718;32;38115;-82
2024/01/20 03:45:15;;;;;;;15.70;7.53;;;;;;;-0.06;53.84;100778.16;7737529;32;40141;-81
2024/01/20 03:49:31;;;;;;;16.17;8.07;;;;;;;-0.18;54.55;100782.25;7737551;32;39958;-81
2024/01/20 03:53:48;;;;;;;14.18;8.20;;;;;;;-0.27;55.21;100778.78;7749262;32;37743;-81
2024/01/20 03:58:04;;;;;;;16.40;8.23;;;;;;;-0.29;55.34;100780.00;7764166;32;37845;-81
2024/01/20 04:02:20;;;;;;;15.70;8.75;;;;;;;-0.52;55.87;100764.69;7742677;32;39401;-82
2024/01/20 04:06:37;;;;;;;15.07;7.97;;;;;;;-0.83;56.96;100773.53;7737070;32;39919;-81
2024/01/20 04:10:54;;;;;;;17.08;8.18;;;;;;;-0.53;56.44;100779.09;7723316;32;37861;-81
2024/01/20 04:15:10;;;;;;;18.05;9.10;;;;;;;-0.53;55.98;100784.47;7739058;32;37093;-81
2024/01/20 04:19:26;;;;;;;15.25;9.05;;;;;;;-0.72;56.78;100790.25;7726399;32;39468;-81
2024/01/20 04:23:43;;;;;;;12.27;7.70;;;;;;;-0.85;56.95;100794.28;7726053;32;40012;-81
2024/01/20 04:27:59;;;;;;;11.15;7.45;;;;;;;-1.05;57.57;100811.72;7725952;32;38637;-82
2024/01/20 04:32:15;;;;;;;17.65;8.85;;;;;;;-0.97;57.53;100815.25;7740085;32;37262;-83
2024/01/20 04:36:32;;;;;;;15.60;8.98;;;;;;;-0.64;56.36;100808.94;7763839;32;39130;-81
2024/01/20 04:40:48;;;;;;;12.65;7.75;;;;;;;-0.61;56.07;100798.69;7766874;32;39949;-81
2024/01/20 04:45:05;;;;;;;17.23;8.57;;;;;;;-0.87;56.93;100814.22;7766715;32;37950;-83
2024/01/20 04:49:21;;;;;;;15.25;9.23;;;;;;;-0.71;56.42;100824.03;7766841;32;38293;-82
2024/01/20 04:53:38;;;;;;;18.23;8.30;;;;;;;-0.73;56.16;100845.62;7753847;32;39540;-81
2024/01/20 04:57:54;;;;;;;15.82;8.60;;;;;;;-0.77;56.23;100842.44;7739510;32;39914;-81
2024/01/20 05:02:10;;;;;;;15.27;8.07;;;;;;;-0.80;55.87;100837.44;7739533;32;38683;-82
2024/01/20 05:06:27;;;;;;;13.30;8.40;;;;;;;-0.88;56.01;100839.31;7739674;32;37190;-81
2024/01/20 05:10:43;;;;;;;15.00;8.43;;;;;;;-1.18;57.22;100852.41;7739434;32;39320;-82
2024/01/20 05:14:59;;;;;;;16.65;8.27;;;;;;;-1.01;56.94;100859.41;7739420;32;40891;-82
2024/01/20 05:19:16;;;;;;;11.20;7.72;;;;;;;-1.07;56.95;100859.25;7739372;32;37721;-82
2024/01/20 05:23:32;;;;;;;16.95;8.20;;;;;;;-0.91;56.53;100871.75;7739133;32;37820;-81
2024/01/20 05:27:48;;;;;;;16.70;8.07;;;;;;;-1.39;57.38;100864.44;7739419;32;39346;-82
2024/01/20 05:32:05;;;;;;;15.95;9.30;;;;;;;-0.97;56.24;100871.47;7751578;32;39988;-81
2024/01/20 05:36:21;;;;;;;12.60;7.65;;;;;;;-1.30;57.03;100876.00;7766199;32;38077;-82
2024/01/20 05:40:37;;;;;;;11.90;7.68;;;;;;;-1.56;57.56;100879.66;7766316;32;37061;-82
2024/01/20 05:44:53;;;;;;;11.02;7.07;;;;;;;-1.71;58.20;100875.97;7766110;32;39082;-81
2024/01/20 05:49:10;;;;;;;18.80;7.78;;;;;;;-1.40;57.94;100878.00;7766049;32;40712;-81
2024/01/20 05:53:26;;;;;;;14.05;8.10;;;;;;;-1.46;57.83;100881.34;7765941;32;38025;-82
2024/01/20 05:57:43;;;;;;;16.83;8.38;;;;;;;-1.24;57.55;100893.22;7765835;32;38194;-81
2024/01/20 06:02:00;;;;;;;16.73;8.75;;;;;;;-1.18;57.19;100897.91;7755781;32;40095;-82
2024/01/20 06:06:16;;;;;;;17.12;7.90;;;;;;;-1.11;57.34;100906.09;7765541;32;39954;-82
2024/01/20 06:10:33;;;;;;;13.00;8.20;;;;;;;-1.09;56.77;100918.28;7741764;32;37887;-82
2024/01/20 06:14:49;;;;;;;12.43;8.27;;;;;;;-1.24;57.17;100926.16;7738814;32;37153;-82
2024/01/20 06:19:06;;;;;;;13.40;8.23;;;;;;;-1.40;57.51;100926.97;7738702;32;39270;-81
2024/01/20 06:23:22;;;;;;;17.92;8.82;;;;;;;-1.05;56.70;100938.37;7742368;32;39969;-81
2024/01/20 06:27:38;;;;;;;15.50;9.43;;;;;;;-1.25;57.40;100940.53;7755106;32;38724;-83
2024/01/20 06:31:55;;;;;;;18.85;8.05;;;;;;;-1.17;57.30;100943.22;7738625;32;38041;-82
2024/01/20 06:36:11;;;;;;;16.02;9.40;;;;;;;-0.91;56.49;100952.06;7751376;32;39374;-82
2024/01/20 06:40:27;;;;;;;17.45;8.38;;;;;;;-0.86;56.35;100957.78;7738498;32;41206;-83
2024/01/20 06:44:44;;;;;;;15.25;8.25;;;;;;;-0.93;56.60;100973.69;7738163;32;38711;-82
2024/01/20 06:49:00;;;;;;;19.20;10.88;;;;;;;-0.59;55.63;100986.91;7738375;32;36907;-82
2024/01/20 06:53:16;;;;;;;17.75;8.85;;;;;;;-0.68;55.77;100984.38;7738486;32;39326;-82
2024/01/20 06:57:33;;;;;;;14.68;8.13;;;;;;;-0.63;55.46;100998.09;7738157;32;40108;-82
2024/01/20 07:01:49;;;;;;;15.25;7.93;;;;;;;-0.51;55.15;101002.09;7738056;32;38114;-82
2024/01/20 07:06:07;;;;;;;13.95;8.30;;;;;;;-0.50;55.15;100990.41;7738257;32;37752;-83
2024/01/20 07:10:23;;;;;;;12.52;7.95;;;;;;;-0.32;54.87;100992.87;7738142;32;39347;-83
2024/01/20 07:14:42;;;;;;;15.57;7.72;;;;;;;-0.39;55.26;101003.44;7738106;32;39683;-83
2024/01/20 07:18:58;;;;;;;15.75;8.57;;;;;;;-0.59;55.84;101010.16;7737982;32;36843;-82
2024/01/20 07:23:14;;;;;;;16.95;9.02;;;;;;;-0.45;55.61;101020.19;7737865;32;37409;-84
2024/01/20 07:27:31;;;;;;;16.92;8.02;;;;;;;-0.30;55.38;101024.84;7737871;32;39482;-83
2024/01/20 07:31:47;;;;;;;17.45;8.70;;;;;;;-0.07;54.75;101025.81;7738006;32;39730;-81
2024/01/20 07:36:05;;;;;;;16.12;9.18;;;;;;;-0.07;55.03;101031.19;7737792;32;37648;-81
2024/01/20 07:40:22;;;;;;;21.62;11.75;;;;;;;-0.01;54.71;101029.66;7737821;32;36912;-82
2024/01/20 07:44:38;;;;;;;18.67;9.25;;;;;;;0.13;54.71;101033.47;7737481;32;40052;-82
2024/01/20 07:48:54;;;;;;;19.10;10.63;;;;;;;0.51;53.76;101022.91;7737599;32;40833;-83
2024/01/20 07:53:11;;;;;;;28.38;10.52;;;;;;;0.42;53.98;101032.84;7737269;32;38454;-75
2024/01/20 07:57:27;;;;;;;19.33;9.60;;;;;;;0.67;56.08;101028.19;7737301;32;37371;-83
2024/01/20 08:01:43;;;;;;;17.27;9.13;;;;;;;1.14;58.14;101034.44;7737235;32;40672;-84
2024/01/20 08:06:00;;;;;;;17.30;9.15;;;;;;;1.67;54.53;101029.09;7737180;32;39709;-83
2024/01/20 08:10:16;;;;;;;20.90;10.90;;;;;;;1.24;53.44;101034.19;7737199;32;37844;-82
2024/01/20 08:14:33;;;;;;;19.62;10.60;;;;;;;1.50;52.98;101044.53;7736885;32;38202;-83
2024/01/20 08:18:49;;;;;;;21.00;10.52;;;;;;;1.25;53.00;101035.88;7736904;32;39285;-82
2024/01/20 08:23:07;;;;;;;17.00;9.73;;;;;;;1.08;52.65;101041.34;7736543;32;39748;-81
2024/01/20 08:27:23;;;;;;;19.10;10.40;;;;;;;1.39;52.84;101027.00;7736729;32;38875;-82
2024/01/20 08:31:39;;;;;;;16.87;10.35;;;;;;;1.36;53.19;101039.97;7736547;32;37202;-82
2024/01/20 08:35:55;;;;;;;21.37;10.73;;;;;;;1.02;54.05;101038.53;7736322;32;39124;-80
2024/01/20 08:40:12;;;;;;;20.90;11.20;;;;;;;1.44;56.46;101046.09;7736230;32;39792;-82
2024/01/20 08:44:28;;;;;;;26.30;15.20;;;;;;;1.91;53.46;101054.91;7722093;32;38660;-82
2024/01/20 08:48:45;;;;;;;26.55;12.73;;;;;;;1.09;53.39;101053.78;7735983;32;38261;-83
2024/01/20 08:53:02;;;;;;;18.87;9.73;;;;;;;1.80;52.45;101072.34;7735648;32;40173;-83
2024/01/20 08:57:22;;;;;;;22.65;9.23;;;;;;;2.37;51.19;101081.66;7735806;32;40254;-82
2024/01/20 09:01:39;;;;;;;18.33;10.63;;;;;;;2.35;50.12;101081.00;7738367;32;37743;-82
2024/01/20 09:05:56;;;;;;;17.52;8.65;;;;;;;1.85;51.65;101083.38;7739323;32;37877;-82
2024/01/20 09:10:12;;;;;;;16.15;8.95;;;;;;;2.14;52.25;101086.28;7739578;32;39324;-82
2024/01/20 09:14:29;;;;;;;15.52;8.90;;;;;;;2.27;52.96;101091.03;7739537;32;39945;-82
2024/01/20 09:18:45;;;;;;;14.38;7.60;;;;;;;2.14;51.23;101105.13;7739282;32;38749;-82
2024/01/20 09:23:01;;;;;;;13.35;8.75;;;;;;;2.68;55.09;101101.31;7739507;32;37120;-83
2024/01/20 09:27:18;;;;;;;21.98;9.63;;;;;;;2.80;50.41;101095.25;7739186;32;39939;-83
2024/01/20 09:31:34;;;;;;;20.45;10.20;;;;;;;2.86;49.07;101099.03;7739249;32;39893;-81
2024/01/20 09:35:50;;;;;;;18.45;8.65;;;;;;;2.61;50.17;101103.94;7739068;32;38680;-82
2024/01/20 09:40:07;;;;;;;17.40;8.95;;;;;;;2.94;48.49;101095.41;7739049;32;37187;-78
2024/01/20 09:44:24;;;;;;;18.12;8.48;;;;;;;2.39;49.41;101108.37;7739058;32;39088;-81
2024/01/20 09:48:43;;;;;;;15.13;7.82;;;;;;;3.34;50.95;101087.75;7725339;32;39943;-81
2024/01/20 09:53:14;;;;;;;14.68;8.50;;;;;;;3.36;48.12;101083.84;7739070;32;37622;-82
2024/01/20 09:57:31;;;;;;;15.50;9.38;;;;;;;3.16;48.32;101086.34;7739036;32;37275;-82
2024/01/20 10:01:48;;;;;;;18.90;9.43;;;;;;;3.41;48.39;101085.13;7738849;32;39342;-83
2024/01/20 10:06:05;;;;;;;14.45;8.07;;;;;;;4.22;48.47;101079.34;7738835;32;40845;-83
2024/01/20 10:10:22;;;;;;;18.55;9.93;;;;;;;3.76;47.87;101081.50;7737721;32;38723;-83
2024/01/20 10:14:39;;;;;;;14.57;8.57;;;;;;;3.80;47.04;101073.84;7738790;32;37500;-83
2024/01/20 10:18:55;;;;;;;17.00;9.02;;;;;;;4.17;47.91;101079.91;7738752;32;40025;-82
2024/01/20 10:23:12;;;;;;;15.57;8.48;;;;;;;3.70;48.03;101067.97;7733849;32;154557;-81
2024/01/20 10:27:28;;;;;;;19.65;9.30;;;;;;;4.56;46.00;101064.97;7738586;32;37976;-82
2024/01/20 10:31:44;;;;;;;16.85;10.00;;;;;;;4.48;47.68;101068.69;7724854;32;37139;-82
2024/01/20 10:36:02;;;;;;;23.73;11.20;;;;;;;4.45;46.43;101068.22;7738425;32;39421;-83
2024/01/20 10:40:18;;;;;;;14.95;8.88;;;;;;;4.65;45.81;101071.88;7724908;32;40798;-83
2024/01/20 10:44:37;;;;;;;18.50;10.55;;;;;;;5.04;45.63;101066.81;7738225;32;38837;-83
2024/01/20 10:48:57;;;;;;;19.40;10.57;;;;;;;4.99;45.20;101066.59;7738282;32;38057;-83
2024/01/20 10:53:14;;;;;;;15.55;8.57;;;;;;;5.59;45.01;101059.41;7738251;32;39947;-83
2024/01/20 10:57:33;;;;;;;16.45;8.70;;;;;;;5.32;43.45;101068.53;7738235;32;39844;-83
2024/01/20 11:01:50;;;;;;;13.18;7.45;;;;;;;4.27;46.38;101066.91;7738129;32;38595;-78
2024/01/20 11:06:07;;;;;;;15.02;8.00;;;;;;;3.89;49.34;101082.62;7724315;32;37045;-82
2024/01/20 11:10:24;;;;;;;16.83;7.68;;;;;;;3.56;48.20;101077.81;7738106;32;40157;-83
2024/01/20 11:14:48;;;;;;;12.73;6.97;;;;;;;4.14;46.81;101070.38;7738081;32;40005;-82
2024/01/20 11:19:11;;;;;;;10.93;6.68;;;;;;;5.09;45.81;101067.03;7725117;32;38672;-82
2024/01/20 11:23:29;;;;;;;15.75;7.47;;;;;;;5.05;44.23;101068.47;7737714;32;37095;-82
2024/01/20 11:27:58;;;;;;;15.70;7.28;;;;;;;4.80;44.84;101074.44;7737916;32;40132;-83
2024/01/20 11:32:14;;;;;;;15.50;7.95;;;;;;;4.04;46.77;101067.19;7737873;32;40759;-83
2024/01/20 11:36:31;;;;;;;14.82;7.47;;;;;;;3.66;47.36;101056.72;7737783;32;37810;-83
2024/01/20 11:41:02;;;;;;;16.17;8.68;;;;;;;3.68;47.03;101054.66;7737774;32;35706;-83
2024/01/20 11:45:18;;;;;;;9.80;6.07;;;;;;;4.37;46.74;101053.03;7737661;32;39096;-82
2024/01/20 11:49:35;;;;;;;17.20;8.00;;;;;;;3.58;46.98;101038.81;7737701;32;39928;-83
2024/01/20 11:53:52;;;;;;;14.15;7.05;;;;;;;3.54;48.34;101047.50;7737435;32;37690;-84
2024/01/20 11:58:09;;;;;;;13.75;6.90;;;;;;;3.73;46.99;101035.22;7737087;32;37200;-83
2024/01/20 12:02:28;;;;;;;16.65;7.70;;;;;;;4.39;45.35;101031.25;7737286;32;39310;-84
2024/01/20 12:06:45;;;;;;;17.52;7.15;;;;;;;4.66;46.44;101032.19;7737167;32;39983;-83
2024/01/20 12:11:02;;;;;;;10.15;5.82;;;;;;;5.22;44.75;101007.56;7736951;32;38693;-81
2024/01/20 12:15:19;;;;;;;21.73;10.07;;;;;;;5.41;43.66;101015.91;7737038;32;37165;-83
2024/01/20 12:19:39;;;;;;;18.83;8.02;;;;;;;4.97;44.95;101017.31;7746139;32;39112;-82
2024/01/20 12:23:56;;;;;;;12.45;6.82;;;;;;;4.38;45.39;101022.31;7736648;32;40735;-85
2024/01/20 12:28:13;;;;;;;14.45;6.50;;;;;;;4.46;45.19;101013.19;7740348;32;38882;-82
2024/01/20 12:32:29;;;;;;;11.27;6.40;;;;;;;5.06;44.66;101016.91;7740395;32;37224;-84
2024/01/20 12:36:45;;;;;;;16.05;7.15;;;;;;;5.05;44.70;101012.56;7765378;32;39980;-84
2024/01/20 12:41:02;;;;;;;13.80;7.30;;;;;;;4.72;45.47;101007.06;7756828;32;39739;-84
2024/01/20 12:45:18;;;;;;;12.85;6.62;;;;;;;4.22;46.69;101011.84;7760428;32;38361;-85
2024/01/20 12:49:34;;;;;;;14.40;6.65;;;;;;;5.34;44.87;101004.25;7741085;32;37139;-86
2024/01/20 12:53:51;;;;;;;12.57;7.30;;;;;;;5.02;44.63;101007.56;7748954;32;40196;-88
2024/01/20 12:58:08;;;;;;;14.13;7.43;;;;;;;5.62;44.82;101018.41;7741132;32;39865;-86
2024/01/20 13:02:25;;;;;;;12.57;6.50;;;;;;;4.61;45.00;101027.37;7735386;32;38827;-87
2024/01/20 13:06:41;;;;;;;12.45;6.50;;;;;;;4.39;45.72;101029.38;7765477;32;37035;-86
2024/01/20 13:10:58;;;;;;;13.77;7.80;;;;;;;4.85;44.85;101028.72;7738508;32;39119;-86
2024/01/20 13:15:14;;;;;;;11.57;6.85;;;;;;;4.37;46.61;101042.25;7740180;32;40122;-85
2024/01/20 13:19:31;;;;;;;11.85;7.47;;;;;;;4.31;46.70;101040.34;7739487;32;37954;-88
2024/01/20 13:23:48;;;;;;;11.82;6.47;;;;;;;4.78;46.08;101046.78;7740541;32;37893;-87
2024/01/20 13:28:04;;;;;;;16.60;8.60;;;;;;;4.75;45.46;101044.47;7764749;32;39265;-89
2024/01/20 13:32:24;;;;;;;15.80;7.57;;;;;;;4.12;46.68;101053.53;7730452;32;40973;-88
2024/01/20 13:36:40;;;;;;;16.05;7.32;;;;;;;4.80;45.73;101069.03;7751127;32;37829;-86
2024/01/20 13:40:57;;;;;;;14.93;7.95;;;;;;;4.23;46.33;101072.91;7742789;32;37226;-87
2024/01/20 13:45:13;;;;;;;10.68;6.22;;;;;;;4.76;44.87;101062.38;7747745;32;39273;-77
2024/01/20 13:49:31;;;;;;;13.35;7.43;;;;;;;5.04;44.71;101064.13;7758755;32;40174;-77
2024/01/20 13:53:47;;;;;;;14.10;6.60;;;;;;;4.85;46.01;101071.94;7754425;32;37931;-80
2024/01/20 13:58:03;;;;;;;12.98;7.85;;;;;;;5.95;47.04;101060.00;7762649;32;37885;-82
2024/01/20 14:02:19;;;;;;;16.62;7.82;;;;;;;6.18;42.25;101062.31;7738846;32;39898;-81
2024/01/20 14:06:36;;;;;;;17.30;8.30;;;;;;;7.23;41.97;101050.37;7742151;32;39913;-78
2024/01/20 14:10:54;;;;;;;15.52;7.28;;;;;;;9.05;37.24;101051.88;7752183;32;37820;-80
2024/01/20 14:15:11;;;;;;;13.25;6.90;;;;;;;12.39;30.23;101034.88;7743767;32;37795;-81
2024/01/20 14:19:28;;;;;;;13.77;7.62;;;;;;;13.73;26.52;101025.31;7737412;32;39374;-83
2024/01/20 14:23:44;;;;;;;12.85;7.07;;;;;;;14.84;25.39;101026.19;7758418;32;40018;-82
2024/01/20 14:28:01;;;;;;;14.50;7.47;;;;;;;14.57;26.50;101029.09;7761069;32;38121;-83
2024/01/20 14:32:17;;;;;;;16.90;7.57;;;;;;;15.36;24.23;101040.84;7738845;32;37342;-85
2024/01/20 14:36:33;;;;;;;18.27;8.65;;;;;;;13.87;25.23;101040.22;7737973;32;39349;-84
2024/01/20 14:40:50;;;;;;;17.05;8.52;;;;;;;16.10;23.42;101032.31;7752202;32;39725;-83
2024/01/20 14:45:07;;;;;;;15.68;8.57;;;;;;;16.39;22.64;101028.94;7749625;32;37931;-84
2024/01/20 14:49:25;;;;;;;13.85;8.05;;;;;;;16.34;22.31;101030.56;7741367;32;37126;-83
2024/01/20 14:53:44;;;;;;;18.52;8.63;;;;;;;17.14;21.91;101039.03;7741470;32;39905;-84
2024/01/20 14:58:00;;;;;;;16.00;7.80;;;;;;;15.49;22.97;101044.16;7742618;32;40502;-84
2024/01/20 15:02:17;;;;;;;21.23;11.32;;;;;;;15.58;23.25;101043.31;7732677;32;37937;-83
2024/01/20 15:06:33;;;;;;;13.05;7.50;;;;;;;12.88;26.27;101068.84;7750539;32;37318;-81
2024/01/20 15:10:50;;;;;;;23.15;13.32;;;;;;;13.85;25.26;101064.34;7755501;32;39142;-81
2024/01/20 15:15:07;;;;;;;17.20;10.45;;;;;;;11.10;28.33;101093.97;7760925;32;39951;-79
2024/01/20 15:19:23;;;;;;;16.25;9.50;;;;;;;10.31;30.14;101089.88;7752496;32;37974;-80
2024/01/20 15:23:40;;;;;;;19.20;10.02;;;;;;;8.98;32.45;101100.94;7747214;32;37861;-77
2024/01/20 15:27:56;;;;;;;22.50;12.75;;;;;;;7.98;34.45;101112.03;7750557;32;39129;-80
2024/01/20 15:32:12;;;;;;;26.55;12.73;;;;;;;6.99;36.56;101120.59;7748933;32;39933;-81
2024/01/20 15:36:28;;;;;;;23.67;11.90;;;;;;;5.94;39.22;101126.03;7759068;32;38712;-79
2024/01/20 15:40:45;;;;;;;24.10;12.05;;;;;;;5.17;41.73;101129.00;7759096;32;37361;-79
2024/01/20 15:45:01;;;;;;;17.98;8.98;;;;;;;4.74;42.43;101133.84;7748516;32;39313;-81
2024/01/20 15:49:18;;;;;;;22.90;10.27;;;;;;;3.99;44.90;101137.09;7752522;32;40845;-79
2024/01/20 15:53:35;;;;;;;22.92;10.70;;;;;;;4.44;43.96;101139.50;7766834;32;38652;-76
2024/01/20 15:57:51;;;;;;;18.00;9.27;;;;;;;4.29;44.18;101134.19;7742711;32;38171;-77
2024/01/20 16:02:08;;;;;;;27.83;10.13;;;;;;;3.97;45.22;101139.16;7745374;32;39932;-76
2024/01/20 16:06:24;;;;;;;17.37;9.43;;;;;;;3.70;46.29;101143.50;7737123;32;39696;-86
2024/01/20 16:10:40;;;;;;;19.02;8.77;;;;;;;3.81;45.99;101136.72;7738945;32;37910;-84
2024/01/20 16:14:57;;;;;;;16.60;8.15;;;;;;;3.93;45.63;101140.56;7764008;32;37212;-85
2024/01/20 16:19:14;;;;;;;16.70;8.55;;;;;;;3.52;48.92;101135.84;7763882;32;39968;-82
2024/01/20 16:23:30;;;;;;;19.80;10.20;;;;;;;3.51;47.08;101145.78;7754733;32;40757;-82
2024/01/20 16:27:47;;;;;;;21.65;10.82;;;;;;;3.20;48.02;101138.00;7736614;32;37882;-82
2024/01/20 16:32:05;;;;;;;18.60;10.00;;;;;;;2.78;51.68;101144.97;7736591;32;37189;-83
2024/01/20 16:36:23;;;;;;;17.48;10.13;;;;;;;2.82;49.77;101151.63;7736359;32;39330;-84
2024/01/20 16:40:44;;;;;;;26.02;10.10;;;;;;;2.66;51.12;101154.50;7748190;32;39646;-84
2024/01/20 16:45:05;;;;;;;22.42;9.75;;;;;;;2.76;50.01;101163.13;7749228;32;37950;-81
2024/01/20 16:49:22;;;;;;;19.30;10.35;;;;;;;2.39;51.13;101164.91;7747968;32;37865;-83
2024/01/20 16:53:39;;;;;;;21.45;10.38;;;;;;;2.60;49.63;101159.66;7750315;32;39440;-84
2024/01/20 16:57:57;;;;;;;26.48;9.68;;;;;;;2.38;50.22;101169.47;7732254;32;40933;-84
2024/01/20 17:02:18;;;;;;;22.27;11.48;;;;;;;2.65;49.56;101169.00;7748162;32;38692;-87
2024/01/20 17:06:34;;;;;;;26.35;12.23;;;;;;;2.60;49.79;101174.94;7748487;32;38000;-86
2024/01/20 17:10:51;;;;;;;17.73;10.05;;;;;;;2.53;49.94;101180.22;7743558;32;39050;-86
2024/01/20 17:15:09;;;;;;;20.85;10.82;;;;;;;2.33;50.63;101179.09;7747630;32;40902;-87
2024/01/20 17:19:31;;;;;;;24.87;11.48;;;;;;;2.21;50.94;101187.62;7748914;32;38620;-86
2024/01/20 17:23:48;;;;;;;22.15;11.98;;;;;;;2.28;50.82;101186.88;7751368;32;37717;-86
2024/01/20 17:28:07;;;;;;;23.60;13.95;;;;;;;2.32;50.53;101188.19;7751160;32;39063;-83
2024/01/20 17:32:25;;;;;;;26.90;14.55;;;;;;;2.27;51.07;101198.69;7751132;32;39833;-84
2024/01/20 17:36:43;;;;;;;28.35;13.93;;;;;;;2.38;50.58;101196.37;7755414;32;37958;-84
2024/01/20 17:41:03;;;;;;;27.40;13.18;;;;;;;2.20;51.27;101198.56;7750687;32;37291;-82
2024/01/20 17:45:20;;;;;;;20.20;12.10;;;;;;;2.25;50.54;101193.47;7738475;32;38066;-83
2024/01/20 17:49:37;;;;;;;27.98;14.13;;;;;;;2.33;50.63;101190.72;7750804;32;40090;-82
2024/01/20 17:53:54;;;;;;;20.58;12.40;;;;;;;2.18;50.91;101204.13;7739365;32;38331;-83
2024/01/20 17:58:11;;;;;;;25.80;12.63;;;;;;;1.90;51.64;101200.31;7751442;32;37278;-84
2024/01/20 18:02:27;;;;;;;22.83;11.90;;;;;;;2.10;51.15;101206.87;7737128;32;39186;-87
2024/01/20 18:06:44;;;;;;;30.58;11.18;;;;;;;2.19;51.04;101204.97;7738149;32;40710;-88
2024/01/20 18:11:00;;;;;;;27.58;13.32;;;;;;;2.17;50.99;101212.38;7738639;32;38839;-85
2024/01/20 18:15:17;;;;;;;30.05;15.13;;;;;;;2.00;51.33;101215.22;7749144;32;37323;-86
2024/01/20 18:19:33;;;;;;;30.02;15.07;;;;;;;1.93;51.29;101216.09;7738714;32;39461;-84
2024/01/20 18:23:50;;;;;;;28.75;12.80;;;;;;;1.74;51.41;101199.44;7752857;32;39695;-83
2024/01/20 18:28:06;;;;;;;26.75;12.60;;;;;;;1.76;51.21;101208.19;7750377;32;37623;-83
2024/01/20 18:32:23;;;;;;;23.45;11.55;;;;;;;1.64;51.32;101207.75;7750945;32;37273;-84
2024/01/20 18:36:40;;;;;;;20.62;11.45;;;;;;;1.67;51.58;101217.28;7756194;32;38977;-82
2024/01/20 18:40:57;;;;;;;28.15;13.13;;;;;;;1.58;51.79;101223.75;7757280;32;40963;-83
2024/01/20 18:45:13;;;;;;;23.67;12.20;;;;;;;1.49;52.08;101226.47;7750881;32;38617;-82
2024/01/20 18:49:29;;;;;;;25.92;12.77;;;;;;;1.39;52.39;101231.25;7741323;32;37596;-82
2024/01/20 18:53:46;;;;;;;30.88;12.93;;;;;;;1.08;53.45;101239.28;7738497;32;40054;-82
2024/01/20 18:58:02;;;;;;;25.67;12.48;;;;;;;1.30;52.89;101243.06;7762970;32;40766;-82
2024/01/20 19:02:18;;;;;;;24.55;12.80;;;;;;;1.22;52.85;101240.41;7764428;32;38820;-82
2024/01/20 19:06:35;;;;;;;25.23;13.57;;;;;;;1.15;52.95;101244.78;7737804;32;38038;-83
2024/01/20 19:10:51;;;;;;;23.10;12.05;;;;;;;1.34;52.34;101244.34;7737984;32;39304;-78
2024/01/20 19:15:07;;;;;;;27.80;14.73;;;;;;;1.03;53.40;101253.22;7747292;32;39988;-77
2024/01/20 19:19:28;;;;;;;22.20;12.90;;;;;;;1.10;53.05;101250.69;7742280;32;38815;-77
2024/01/20 19:23:45;;;;;;;26.15;12.68;;;;;;;1.10;53.05;101238.09;7738066;32;37424;-77
2024/01/20 19:28:01;;;;;;;24.50;12.45;;;;;;;1.19;52.95;101243.41;7737856;32;40021;-78
2024/01/20 19:32:17;;;;;;;21.55;11.77;;;;;;;0.88;53.77;101244.19;7737748;32;39982;-80
2024/01/20 19:36:33;;;;;;;21.55;11.10;;;;;;;0.91;53.46;101242.03;7737687;32;38773;-80
2024/01/20 19:40:50;;;;;;;22.15;11.85;;;;;;;0.93;53.12;101247.22;7747069;32;36948;-80
2024/01/20 19:45:06;;;;;;;19.48;11.15;;;;;;;1.12;52.32;101246.81;7737300;32;39373;-79